Wednesday, September 03, 2014
04:42 UTC
  |  Log In   |  Register Free
Airport Search:

Indiana County/Jimmy Stewart Fld/ Airport
(KIDI)

Indiana County/Jimmy Stewart Fld/ Airport Diagram
No Airport Diagram Available

FAA data valid effective July 24, 2014 until September 18, 2014 (unless otherwise noted).

 
 
 
 
 
 
 
 
 
 
 
 
 
 

Current Aviation Weather for Indiana County/Jimmy Stewart Fld/ Airport (KIDI)

The most recent METAR observation for KIDI was updated at: 0235 UTC
METAR Summary (Translated METAR)
KIDI
030235Z AUTO 00000KT 9SM BKN024 BKN028 OVC034 20/19 A3002 RMK A01
KJST
(22.7 nm SE from KIDI)
030154Z AUTO 30007KT 10SM FEW012 SCT018 BKN039 20/18 A3001 RMK AO2 SLP146 T02000183
TAF Summary (Translated TAF)
KJST
(22.7 nm SE from KIDI)
030341Z 0304/0324 28008KT 6SM BR SCT025 FM030500 28005KT 5SM BR BKN018 FM030800 VRB03KT 2SM BR BKN004 TEMPO 0309/0313 1/2SM FG OVC002 FM031500 29005KT P6SM SCT020 BKN035
KLBE
(25.5 nm SW from KIDI)
022102Z 0221/0318 22012KT P6SM SCT035 FM030000 24008KT P6SM BKN050 FM030900 26003KT 4SM BR SCT250 FM031300 VRB04KT P6SM SCT040
  Airport Weather Conditions for KIDI

 Current Weather at IDI
68° F
Mostly Cloudy
North winds at 0.0 mph
IDI NOAA Radar

Pressure: 30.04 in
Humidity: 100%
Wind: Calm
Dew Point: 68.0°F
Visibility: 8.00 mi


Airport Weather Forecast for KIDI

Translated METAR and TAF for KIDI
Translated METAR for KIDI (0436 UTC 03 September 2014)
found at http://aviationweather.gov/adds/metars/
 
METAR text: KIDI 030415Z AUTO 00000KT 10SM BKN019 BKN025 OVC033 20/20 A3004 RMK A01
Conditions at: KIDI (INDIANA/STEWART , PA, US) observed 0415 UTC 03 September 2014
Temperature: 20.0°C (68°F)
Dewpoint: 20.0°C (68°F) [RH = 100%]
Pressure (altimeter): 30.04 inches Hg (1017.4 mb)
Winds: calm
Visibility: 10 or more miles (16+ km)
Ceiling: 1900 feet AGL
Clouds: broken clouds at 1900 feet AGL
broken clouds at 2500 feet AGL
overcast cloud deck at 3300 feet AGL
Weather: automated observation with no human augmentation;
there may or may not be significant weather present at this time
Translated TAF for KIDI

There is no translated TAF available for this airport

Find All Airport Services Find A Hotel Find A Rental Car Find A Golf Course Find A Restaurant $100 Hamburger



FBO's on the Field
FBO Company Facility Photos Services Transportation Aviation Fuel Prices: Prices include tax
Catering Weather Repair Courtesy Rental Type 100LL JetA JetA+ MOGAS 8087
 
Indiana County Jimmy Stewart Airport

Currently rated 5 by 1 person
FS:Phillips66
Last Updated: Aug-13
Login to update fuel prices
SS:
Contact Indiana County Jimmy Stewart AirportMore FBO Information
 
Add another FBO Facility Photos Catering Weather Repair Courtesy Rental Type 100LL JetA JetA+ MOGAS 8087
Services Transportation Aviation Fuel Prices: Prices include tax


GlobalAir.com Airport Resource Center model-print
model-print
model-print
model-print